Terminal Aerodrome Forecast
Issued by NWS Dodge City, KS

Home | Current Version | Previous Version | Graphics & Text | Print | Product List | Glossary Off
Versions: 1 2 3 4 5 6 7 8 9 10 11 12 13 14 15 16 17 18 19 20 21 22 23 24 25 26 27 28 29 30 31

000
FTUS43 KDDC 280520
TAFDDC
TAF
KDDC 280520Z 2806/2906 36005KT P6SM SCT250
     FM281400 01009KT P6SM SCT200
     FM281800 04010KT P6SM BKN250
     FM282000 09010KT P6SM SCT250=

USA.gov is the U.S. government's official web portal to all federal, state and local government web resources and services.